Terminal Aerodrome Forecast
Issued by NWS Jacksonville, FL

Home | Current Version | Previous Version | Text Only | Print | Product List | Glossary On
Versions: 1 2 3 4 5 6 7 8 9 10 11 12 13 14 15 16 17 18 19 20 21 22 23 24 25 26 27 28 29 30
497
FTUS42 KJAX 062340
TAFJAX
TAF
KJAX 062340Z 0700/0724 36012G21KT 2SM -RA BR OVC008
     FM070400 34012KT 5SM -RA BR OVC008
     FM071300 32017G25KT P6SM VCSH SCT007 OVC015
     FM071600 32015G23KT P6SM SCT015 BKN025
     FM072000 31015G25KT P6SM SCT040=

USA.gov is the U.S. government's official web portal to all federal, state and local government web resources and services.